sensor_id;sensor_type;location;lat;lon;timestamp;P1;durP1;ratioP1;P2;durP2;ratioP2
27728;SDS011;15126;42.186;24.340;2022-07-12T00:00:35;3.57;;;3.27;;
27728;SDS011;15126;42.186;24.340;2022-07-12T00:03:03;5.53;;;3.47;;
27728;SDS011;15126;42.186;24.340;2022-07-12T00:05:30;3.43;;;3.20;;
27728;SDS011;15126;42.186;24.340;2022-07-12T00:07:57;3.30;;;3.00;;
27728;SDS011;15126;42.186;24.340;2022-07-12T00:10:24;4.47;;;3.27;;
27728;SDS011;15126;42.186;24.340;2022-07-12T00:12:51;4.33;;;3.23;;
27728;SDS011;15126;42.186;24.340;2022-07-12T00:15:19;3.93;;;3.43;;
27728;SDS011;15126;42.186;24.340;2022-07-12T00:17:46;4.33;;;3.20;;
27728;SDS011;15126;42.186;24.340;2022-07-12T00:20:14;4.20;;;3.17;;
27728;SDS011;15126;42.186;24.340;2022-07-12T00:22:41;2.33;;;2.20;;
27728;SDS011;15126;42.186;24.340;2022-07-12T00:25:08;3.50;;;3.20;;
27728;SDS011;15126;42.186;24.340;2022-07-12T00:27:35;2.33;;;2.20;;
27728;SDS011;15126;42.186;24.340;2022-07-12T00:30:03;3.00;;;2.80;;
27728;SDS011;15126;42.186;24.340;2022-07-12T00:32:30;3.20;;;2.80;;
27728;SDS011;15126;42.186;24.340;2022-07-12T00:34:57;2.97;;;2.77;;
27728;SDS011;15126;42.186;24.340;2022-07-12T00:37:26;2.70;;;2.50;;
27728;SDS011;15126;42.186;24.340;2022-07-12T00:39:53;3.40;;;2.87;;
27728;SDS011;15126;42.186;24.340;2022-07-12T00:42:21;3.63;;;3.33;;
27728;SDS011;15126;42.186;24.340;2022-07-12T00:44:48;2.60;;;2.40;;
27728;SDS011;15126;42.186;24.340;2022-07-12T00:47:18;5.47;;;2.93;;
27728;SDS011;15126;42.186;24.340;2022-07-12T00:49:52;3.50;;;2.90;;
27728;SDS011;15126;42.186;24.340;2022-07-12T00:52:20;3.73;;;2.87;;
27728;SDS011;15126;42.186;24.340;2022-07-12T00:54:48;2.97;;;2.77;;
27728;SDS011;15126;42.186;24.340;2022-07-12T00:57:15;2.77;;;2.57;;
27728;SDS011;15126;42.186;24.340;2022-07-12T00:59:43;5.50;;;2.53;;
27728;SDS011;15126;42.186;24.340;2022-07-12T01:02:10;4.57;;;2.70;;
27728;SDS011;15126;42.186;24.340;2022-07-12T01:04:37;3.37;;;2.90;;
27728;SDS011;15126;42.186;24.340;2022-07-12T01:07:04;3.37;;;3.07;;
27728;SDS011;15126;42.186;24.340;2022-07-12T01:09:31;5.07;;;2.70;;
27728;SDS011;15126;42.186;24.340;2022-07-12T01:12:00;5.20;;;2.83;;
27728;SDS011;15126;42.186;24.340;2022-07-12T01:14:28;3.10;;;2.90;;
27728;SDS011;15126;42.186;24.340;2022-07-12T01:16:57;4.40;;;3.17;;
27728;SDS011;15126;42.186;24.340;2022-07-12T01:19:25;2.73;;;2.53;;
27728;SDS011;15126;42.186;24.340;2022-07-12T01:21:52;2.80;;;2.60;;
27728;SDS011;15126;42.186;24.340;2022-07-12T01:24:24;3.90;;;2.83;;
27728;SDS011;15126;42.186;24.340;2022-07-12T01:26:51;3.37;;;2.53;;
27728;SDS011;15126;42.186;24.340;2022-07-12T01:29:19;3.27;;;3.07;;
27728;SDS011;15126;42.186;24.340;2022-07-12T01:31:46;2.90;;;2.67;;
27728;SDS011;15126;42.186;24.340;2022-07-12T01:34:13;3.07;;;2.83;;
27728;SDS011;15126;42.186;24.340;2022-07-12T01:36:40;3.50;;;3.13;;
27728;SDS011;15126;42.186;24.340;2022-07-12T01:39:07;5.13;;;2.93;;
27728;SDS011;15126;42.186;24.340;2022-07-12T01:41:36;2.80;;;2.60;;
27728;SDS011;15126;42.186;24.340;2022-07-12T01:44:03;4.07;;;2.73;;
27728;SDS011;15126;42.186;24.340;2022-07-12T01:46:30;3.00;;;2.80;;
27728;SDS011;15126;42.186;24.340;2022-07-12T01:48:57;3.70;;;3.50;;
27728;SDS011;15126;42.186;24.340;2022-07-12T01:51:24;4.37;;;3.90;;
27728;SDS011;15126;42.186;24.340;2022-07-12T01:53:51;3.60;;;3.30;;
27728;SDS011;15126;42.186;24.340;2022-07-12T01:56:18;3.47;;;3.20;;
27728;SDS011;15126;42.186;24.340;2022-07-12T01:58:47;4.43;;;3.47;;
27728;SDS011;15126;42.186;24.340;2022-07-12T02:01:14;4.20;;;3.13;;
27728;SDS011;15126;42.186;24.340;2022-07-12T02:03:41;2.83;;;2.50;;
27728;SDS011;15126;42.186;24.340;2022-07-12T02:06:08;4.33;;;3.27;;
27728;SDS011;15126;42.186;24.340;2022-07-12T02:08:35;5.13;;;3.10;;
27728;SDS011;15126;42.186;24.340;2022-07-12T02:11:02;3.40;;;3.10;;
27728;SDS011;15126;42.186;24.340;2022-07-12T02:13:29;4.03;;;3.73;;
27728;SDS011;15126;42.186;24.340;2022-07-12T02:15:57;3.23;;;3.03;;
27728;SDS011;15126;42.186;24.340;2022-07-12T02:18:24;3.23;;;2.93;;
27728;SDS011;15126;42.186;24.340;2022-07-12T02:20:51;3.57;;;2.93;;
27728;SDS011;15126;42.186;24.340;2022-07-12T02:23:18;3.43;;;3.13;;
27728;SDS011;15126;42.186;24.340;2022-07-12T02:25:45;3.53;;;3.23;;
27728;SDS011;15126;42.186;24.340;2022-07-12T02:28:12;3.50;;;3.23;;
27728;SDS011;15126;42.186;24.340;2022-07-12T02:30:39;3.67;;;3.33;;
27728;SDS011;15126;42.186;24.340;2022-07-12T02:33:07;4.00;;;3.70;;
27728;SDS011;15126;42.186;24.340;2022-07-12T02:35:34;3.33;;;3.13;;
27728;SDS011;15126;42.186;24.340;2022-07-12T02:38:02;4.37;;;3.30;;
27728;SDS011;15126;42.186;24.340;2022-07-12T02:40:29;3.47;;;3.20;;
27728;SDS011;15126;42.186;24.340;2022-07-12T02:43:16;4.70;;;3.23;;
27728;SDS011;15126;42.186;24.340;2022-07-12T02:45:42;4.77;;;3.10;;
27728;SDS011;15126;42.186;24.340;2022-07-12T02:48:11;3.90;;;3.50;;
27728;SDS011;15126;42.186;24.340;2022-07-12T02:50:38;5.47;;;3.20;;
27728;SDS011;15126;42.186;24.340;2022-07-12T02:53:05;8.43;;;3.30;;
27728;SDS011;15126;42.186;24.340;2022-07-12T02:55:33;3.93;;;3.63;;
27728;SDS011;15126;42.186;24.340;2022-07-12T02:58:00;3.90;;;3.60;;
27728;SDS011;15126;42.186;24.340;2022-07-12T03:00:27;3.80;;;3.50;;
27728;SDS011;15126;42.186;24.340;2022-07-12T03:02:54;4.03;;;3.60;;
27728;SDS011;15126;42.186;24.340;2022-07-12T03:05:23;3.63;;;3.33;;
27728;SDS011;15126;42.186;24.340;2022-07-12T03:07:50;4.20;;;3.57;;
27728;SDS011;15126;42.186;24.340;2022-07-12T03:10:17;4.77;;;3.50;;
27728;SDS011;15126;42.186;24.340;2022-07-12T03:12:44;4.70;;;3.77;;
27728;SDS011;15126;42.186;24.340;2022-07-12T03:15:11;3.53;;;3.33;;
27728;SDS011;15126;42.186;24.340;2022-07-12T03:17:39;3.50;;;3.17;;
27728;SDS011;15126;42.186;24.340;2022-07-12T03:20:06;3.60;;;3.30;;
27728;SDS011;15126;42.186;24.340;2022-07-12T03:22:38;3.97;;;3.10;;
27728;SDS011;15126;42.186;24.340;2022-07-12T03:25:05;3.87;;;3.23;;
27728;SDS011;15126;42.186;24.340;2022-07-12T03:27:33;4.80;;;3.17;;
27728;SDS011;15126;42.186;24.340;2022-07-12T03:30:00;4.57;;;3.13;;
27728;SDS011;15126;42.186;24.340;2022-07-12T03:32:28;3.50;;;3.03;;
27728;SDS011;15126;42.186;24.340;2022-07-12T03:34:55;4.90;;;3.33;;
27728;SDS011;15126;42.186;24.340;2022-07-12T03:37:22;3.30;;;3.00;;
27728;SDS011;15126;42.186;24.340;2022-07-12T03:39:50;4.93;;;3.23;;
27728;SDS011;15126;42.186;24.340;2022-07-12T03:42:18;4.07;;;3.00;;
27728;SDS011;15126;42.186;24.340;2022-07-12T03:44:45;4.07;;;3.27;;
27728;SDS011;15126;42.186;24.340;2022-07-12T03:47:12;3.73;;;3.37;;
27728;SDS011;15126;42.186;24.340;2022-07-12T03:49:39;4.37;;;3.50;;
27728;SDS011;15126;42.186;24.340;2022-07-12T03:52:06;6.67;;;3.10;;
27728;SDS011;15126;42.186;24.340;2022-07-12T03:54:34;3.10;;;2.90;;
27728;SDS011;15126;42.186;24.340;2022-07-12T03:57:02;6.23;;;3.80;;
27728;SDS011;15126;42.186;24.340;2022-07-12T03:59:42;4.20;;;3.83;;
27728;SDS011;15126;42.186;24.340;2022-07-12T04:02:10;7.33;;;3.90;;
27728;SDS011;15126;42.186;24.340;2022-07-12T04:04:38;3.33;;;3.10;;
27728;SDS011;15126;42.186;24.340;2022-07-12T04:07:06;5.27;;;4.20;;
27728;SDS011;15126;42.186;24.340;2022-07-12T04:09:33;5.97;;;3.20;;
27728;SDS011;15126;42.186;24.340;2022-07-12T04:12:02;3.53;;;3.27;;
27728;SDS011;15126;42.186;24.340;2022-07-12T04:14:32;3.90;;;3.20;;
27728;SDS011;15126;42.186;24.340;2022-07-12T04:16:59;3.30;;;3.00;;
27728;SDS011;15126;42.186;24.340;2022-07-12T04:19:26;4.07;;;2.73;;
27728;SDS011;15126;42.186;24.340;2022-07-12T04:21:53;3.17;;;2.90;;
27728;SDS011;15126;42.186;24.340;2022-07-12T04:24:21;4.23;;;3.27;;
27728;SDS011;15126;42.186;24.340;2022-07-12T04:26:51;6.87;;;3.77;;
27728;SDS011;15126;42.186;24.340;2022-07-12T04:29:20;3.57;;;3.00;;
27728;SDS011;15126;42.186;24.340;2022-07-12T04:31:47;4.13;;;3.43;;
27728;SDS011;15126;42.186;24.340;2022-07-12T04:34:15;6.73;;;2.50;;
27728;SDS011;15126;42.186;24.340;2022-07-12T04:36:43;6.93;;;3.20;;
27728;SDS011;15126;42.186;24.340;2022-07-12T04:39:10;4.03;;;2.30;;
27728;SDS011;15126;42.186;24.340;2022-07-12T04:41:38;3.00;;;1.93;;
27728;SDS011;15126;42.186;24.340;2022-07-12T04:44:05;4.17;;;2.47;;
27728;SDS011;15126;42.186;24.340;2022-07-12T04:46:34;2.93;;;2.40;;
27728;SDS011;15126;42.186;24.340;2022-07-12T04:49:02;3.27;;;2.10;;
27728;SDS011;15126;42.186;24.340;2022-07-12T04:51:31;3.43;;;2.40;;
27728;SDS011;15126;42.186;24.340;2022-07-12T04:53:58;4.23;;;2.30;;
27728;SDS011;15126;42.186;24.340;2022-07-12T04:56:25;4.53;;;2.70;;
27728;SDS011;15126;42.186;24.340;2022-07-12T04:58:52;4.10;;;2.27;;
27728;SDS011;15126;42.186;24.340;2022-07-12T05:01:19;2.77;;;2.00;;
27728;SDS011;15126;42.186;24.340;2022-07-12T05:03:48;3.20;;;2.50;;
27728;SDS011;15126;42.186;24.340;2022-07-12T05:06:15;3.20;;;2.47;;
27728;SDS011;15126;42.186;24.340;2022-07-12T05:08:42;4.53;;;2.40;;
27728;SDS011;15126;42.186;24.340;2022-07-12T05:11:09;2.10;;;1.90;;
27728;SDS011;15126;42.186;24.340;2022-07-12T05:13:36;3.40;;;2.80;;
27728;SDS011;15126;42.186;24.340;2022-07-12T05:16:05;2.73;;;2.53;;
27728;SDS011;15126;42.186;24.340;2022-07-12T05:18:33;3.43;;;2.53;;
27728;SDS011;15126;42.186;24.340;2022-07-12T05:21:02;2.87;;;2.43;;
27728;SDS011;15126;42.186;24.340;2022-07-12T05:23:30;3.67;;;2.70;;
27728;SDS011;15126;42.186;24.340;2022-07-12T05:25:57;4.30;;;2.17;;
27728;SDS011;15126;42.186;24.340;2022-07-12T05:28:24;5.73;;;2.27;;
27728;SDS011;15126;42.186;24.340;2022-07-12T05:30:51;4.87;;;2.10;;
27728;SDS011;15126;42.186;24.340;2022-07-12T05:33:18;3.87;;;2.53;;
27728;SDS011;15126;42.186;24.340;2022-07-12T05:35:45;2.20;;;2.07;;
27728;SDS011;15126;42.186;24.340;2022-07-12T05:38:15;4.60;;;2.33;;
27728;SDS011;15126;42.186;24.340;2022-07-12T05:40:42;3.43;;;2.23;;
27728;SDS011;15126;42.186;24.340;2022-07-12T05:43:09;4.57;;;2.73;;
27728;SDS011;15126;42.186;24.340;2022-07-12T05:45:36;1.77;;;1.67;;
27728;SDS011;15126;42.186;24.340;2022-07-12T05:48:04;2.90;;;2.60;;
27728;SDS011;15126;42.186;24.340;2022-07-12T05:50:31;4.33;;;2.73;;
27728;SDS011;15126;42.186;24.340;2022-07-12T05:52:58;4.60;;;2.73;;
27728;SDS011;15126;42.186;24.340;2022-07-12T05:55:44;5.27;;;2.40;;
27728;SDS011;15126;42.186;24.340;2022-07-12T05:58:11;3.33;;;2.20;;
27728;SDS011;15126;42.186;24.340;2022-07-12T06:00:39;3.17;;;2.30;;
27728;SDS011;15126;42.186;24.340;2022-07-12T06:03:06;2.67;;;2.10;;
27728;SDS011;15126;42.186;24.340;2022-07-12T06:05:33;4.73;;;2.53;;
27728;SDS011;15126;42.186;24.340;2022-07-12T06:08:00;2.33;;;2.13;;
27728;SDS011;15126;42.186;24.340;2022-07-12T06:10:27;4.83;;;2.27;;
27728;SDS011;15126;42.186;24.340;2022-07-12T06:12:55;3.03;;;2.30;;
27728;SDS011;15126;42.186;24.340;2022-07-12T06:15:22;2.47;;;2.27;;
27728;SDS011;15126;42.186;24.340;2022-07-12T06:17:50;3.77;;;2.50;;
27728;SDS011;15126;42.186;24.340;2022-07-12T06:20:19;2.40;;;2.20;;
27728;SDS011;15126;42.186;24.340;2022-07-12T06:22:46;6.37;;;2.40;;
27728;SDS011;15126;42.186;24.340;2022-07-12T06:25:14;4.70;;;2.33;;
27728;SDS011;15126;42.186;24.340;2022-07-12T06:27:41;8.67;;;2.23;;
27728;SDS011;15126;42.186;24.340;2022-07-12T06:30:10;2.13;;;1.80;;
27728;SDS011;15126;42.186;24.340;2022-07-12T06:32:37;2.53;;;1.73;;
27728;SDS011;15126;42.186;24.340;2022-07-12T06:35:07;3.17;;;2.27;;
27728;SDS011;15126;42.186;24.340;2022-07-12T06:37:34;5.57;;;2.30;;
27728;SDS011;15126;42.186;24.340;2022-07-12T06:40:01;5.80;;;2.03;;
27728;SDS011;15126;42.186;24.340;2022-07-12T06:42:29;3.23;;;1.87;;
27728;SDS011;15126;42.186;24.340;2022-07-12T06:44:56;6.67;;;2.33;;
27728;SDS011;15126;42.186;24.340;2022-07-12T06:47:24;4.93;;;1.67;;
27728;SDS011;15126;42.186;24.340;2022-07-12T06:49:51;4.07;;;2.33;;
27728;SDS011;15126;42.186;24.340;2022-07-12T06:52:18;5.17;;;2.00;;
27728;SDS011;15126;42.186;24.340;2022-07-12T06:54:45;3.07;;;2.13;;
27728;SDS011;15126;42.186;24.340;2022-07-12T06:57:13;5.20;;;1.83;;
27728;SDS011;15126;42.186;24.340;2022-07-12T06:59:40;3.10;;;1.80;;
27728;SDS011;15126;42.186;24.340;2022-07-12T07:02:07;3.87;;;2.00;;
27728;SDS011;15126;42.186;24.340;2022-07-12T07:04:35;6.63;;;2.00;;
27728;SDS011;15126;42.186;24.340;2022-07-12T07:07:02;4.10;;;1.83;;
27728;SDS011;15126;42.186;24.340;2022-07-12T07:09:30;3.73;;;2.17;;
27728;SDS011;15126;42.186;24.340;2022-07-12T07:11:57;2.00;;;1.60;;
27728;SDS011;15126;42.186;24.340;2022-07-12T07:14:24;3.17;;;1.70;;
27728;SDS011;15126;42.186;24.340;2022-07-12T07:16:52;4.90;;;1.87;;
27728;SDS011;15126;42.186;24.340;2022-07-12T07:19:19;4.87;;;1.70;;
27728;SDS011;15126;42.186;24.340;2022-07-12T07:21:49;5.33;;;1.60;;
27728;SDS011;15126;42.186;24.340;2022-07-12T07:24:16;4.00;;;1.40;;
27728;SDS011;15126;42.186;24.340;2022-07-12T07:26:43;2.70;;;1.70;;
27728;SDS011;15126;42.186;24.340;2022-07-12T07:29:10;2.63;;;1.30;;
27728;SDS011;15126;42.186;24.340;2022-07-12T07:31:55;4.57;;;2.13;;
27728;SDS011;15126;42.186;24.340;2022-07-12T07:34:22;6.27;;;1.50;;
27728;SDS011;15126;42.186;24.340;2022-07-12T07:36:52;6.70;;;1.97;;
27728;SDS011;15126;42.186;24.340;2022-07-12T07:39:19;6.53;;;1.93;;
27728;SDS011;15126;42.186;24.340;2022-07-12T07:41:46;5.83;;;1.80;;
27728;SDS011;15126;42.186;24.340;2022-07-12T07:44:13;3.37;;;1.67;;
27728;SDS011;15126;42.186;24.340;2022-07-12T07:46:40;3.53;;;1.40;;
27728;SDS011;15126;42.186;24.340;2022-07-12T07:49:07;5.80;;;1.67;;
27728;SDS011;15126;42.186;24.340;2022-07-12T07:51:34;2.30;;;1.40;;
27728;SDS011;15126;42.186;24.340;2022-07-12T07:54:02;3.78;;;1.42;;
27728;SDS011;15126;42.186;24.340;2022-07-12T07:56:29;5.93;;;1.80;;
27728;SDS011;15126;42.186;24.340;2022-07-12T07:58:56;5.70;;;1.95;;
27728;SDS011;15126;42.186;24.340;2022-07-12T08:01:23;4.10;;;1.90;;
27728;SDS011;15126;42.186;24.340;2022-07-12T08:04:08;8.02;;;1.58;;
27728;SDS011;15126;42.186;24.340;2022-07-12T08:06:36;8.15;;;1.60;;
27728;SDS011;15126;42.186;24.340;2022-07-12T08:09:04;2.95;;;1.30;;
27728;SDS011;15126;42.186;24.340;2022-07-12T08:11:32;2.70;;;1.40;;
27728;SDS011;15126;42.186;24.340;2022-07-12T08:13:59;3.83;;;1.73;;
27728;SDS011;15126;42.186;24.340;2022-07-12T08:16:26;2.28;;;1.60;;
27728;SDS011;15126;42.186;24.340;2022-07-12T08:18:53;7.10;;;1.75;;
27728;SDS011;15126;42.186;24.340;2022-07-12T08:21:21;2.85;;;1.60;;
27728;SDS011;15126;42.186;24.340;2022-07-12T08:23:48;5.68;;;2.17;;
27728;SDS011;15126;42.186;24.340;2022-07-12T08:26:17;3.83;;;1.45;;
27728;SDS011;15126;42.186;24.340;2022-07-12T08:28:44;3.05;;;1.58;;
27728;SDS011;15126;42.186;24.340;2022-07-12T08:31:11;7.22;;;2.30;;
27728;SDS011;15126;42.186;24.340;2022-07-12T08:33:39;3.17;;;1.92;;
27728;SDS011;15126;42.186;24.340;2022-07-12T08:36:06;4.70;;;1.58;;
27728;SDS011;15126;42.186;24.340;2022-07-12T08:38:34;2.03;;;1.30;;
27728;SDS011;15126;42.186;24.340;2022-07-12T08:41:02;4.50;;;1.52;;
27728;SDS011;15126;42.186;24.340;2022-07-12T08:43:33;4.85;;;2.35;;
27728;SDS011;15126;42.186;24.340;2022-07-12T08:46:04;4.00;;;1.98;;
27728;SDS011;15126;42.186;24.340;2022-07-12T08:48:32;4.47;;;2.20;;
27728;SDS011;15126;42.186;24.340;2022-07-12T08:51:00;1.97;;;1.70;;
27728;SDS011;15126;42.186;24.340;2022-07-12T08:53:28;4.15;;;1.48;;
27728;SDS011;15126;42.186;24.340;2022-07-12T08:55:56;3.22;;;1.20;;
27728;SDS011;15126;42.186;24.340;2022-07-12T08:58:23;3.73;;;1.23;;
27728;SDS011;15126;42.186;24.340;2022-07-12T09:00:51;3.83;;;1.30;;
27728;SDS011;15126;42.186;24.340;2022-07-12T09:03:19;7.78;;;3.00;;
27728;SDS011;15126;42.186;24.340;2022-07-12T09:05:50;5.07;;;1.95;;
27728;SDS011;15126;42.186;24.340;2022-07-12T09:08:18;6.20;;;1.80;;
27728;SDS011;15126;42.186;24.340;2022-07-12T09:10:53;1.98;;;1.40;;
27728;SDS011;15126;42.186;24.340;2022-07-12T09:13:45;3.30;;;1.30;;
27728;SDS011;15126;42.186;24.340;2022-07-12T09:16:17;3.20;;;1.20;;
27728;SDS011;15126;42.186;24.340;2022-07-12T09:18:45;3.00;;;1.65;;
27728;SDS011;15126;42.186;24.340;2022-07-12T09:21:22;5.70;;;1.63;;
27728;SDS011;15126;42.186;24.340;2022-07-12T09:23:51;2.60;;;1.10;;
27728;SDS011;15126;42.186;24.340;2022-07-12T09:26:19;5.20;;;1.42;;
27728;SDS011;15126;42.186;24.340;2022-07-12T09:28:48;6.22;;;2.72;;
27728;SDS011;15126;42.186;24.340;2022-07-12T09:31:18;4.88;;;1.38;;
27728;SDS011;15126;42.186;24.340;2022-07-12T09:34:00;4.65;;;1.60;;
27728;SDS011;15126;42.186;24.340;2022-07-12T09:36:55;4.60;;;1.45;;
27728;SDS011;15126;42.186;24.340;2022-07-12T09:39:23;3.25;;;1.35;;
27728;SDS011;15126;42.186;24.340;2022-07-12T09:41:52;3.63;;;1.42;;
27728;SDS011;15126;42.186;24.340;2022-07-12T09:44:20;3.55;;;1.30;;
27728;SDS011;15126;42.186;24.340;2022-07-12T09:46:49;2.67;;;1.02;;
27728;SDS011;15126;42.186;24.340;2022-07-12T09:49:17;4.43;;;1.75;;
27728;SDS011;15126;42.186;24.340;2022-07-12T09:51:45;4.45;;;1.50;;
27728;SDS011;15126;42.186;24.340;2022-07-12T09:54:17;1.63;;;1.42;;
27728;SDS011;15126;42.186;24.340;2022-07-12T09:56:49;4.18;;;1.40;;
27728;SDS011;15126;42.186;24.340;2022-07-12T09:59:19;5.17;;;1.60;;
27728;SDS011;15126;42.186;24.340;2022-07-12T10:01:51;2.43;;;1.40;;
27728;SDS011;15126;42.186;24.340;2022-07-12T10:04:21;2.87;;;1.60;;
27728;SDS011;15126;42.186;24.340;2022-07-12T10:06:48;2.53;;;1.20;;
27728;SDS011;15126;42.186;24.340;2022-07-12T10:09:17;2.37;;;1.37;;
27728;SDS011;15126;42.186;24.340;2022-07-12T10:11:45;1.80;;;1.20;;
27728;SDS011;15126;42.186;24.340;2022-07-12T10:14:12;4.77;;;1.27;;
27728;SDS011;15126;42.186;24.340;2022-07-12T10:16:41;3.00;;;1.43;;
27728;SDS011;15126;42.186;24.340;2022-07-12T10:19:27;1.60;;;1.20;;
27728;SDS011;15126;42.186;24.340;2022-07-12T10:21:57;4.23;;;1.67;;
27728;SDS011;15126;42.186;24.340;2022-07-12T10:27:31;4.73;;;1.60;;
27728;SDS011;15126;42.186;24.340;2022-07-12T10:30:12;2.93;;;1.53;;
27728;SDS011;15126;42.186;24.340;2022-07-12T10:32:43;4.07;;;1.57;;
27728;SDS011;15126;42.186;24.340;2022-07-12T10:35:13;7.13;;;1.77;;
27728;SDS011;15126;42.186;24.340;2022-07-12T10:40:42;4.88;;;1.67;;
27728;SDS011;15126;42.186;24.340;2022-07-12T10:43:13;4.45;;;1.88;;
27728;SDS011;15126;42.186;24.340;2022-07-12T10:46:05;5.70;;;1.90;;
27728;SDS011;15126;42.186;24.340;2022-07-12T10:48:40;4.47;;;2.00;;
27728;SDS011;15126;42.186;24.340;2022-07-12T10:51:15;1.55;;;1.10;;
27728;SDS011;15126;42.186;24.340;2022-07-12T10:53:44;4.70;;;1.90;;
27728;SDS011;15126;42.186;24.340;2022-07-12T10:56:18;2.83;;;1.63;;
27728;SDS011;15126;42.186;24.340;2022-07-12T10:58:47;2.37;;;1.50;;
27728;SDS011;15126;42.186;24.340;2022-07-12T11:01:17;2.27;;;1.53;;
27728;SDS011;15126;42.186;24.340;2022-07-12T11:03:45;3.57;;;1.50;;
27728;SDS011;15126;42.186;24.340;2022-07-12T11:06:16;3.17;;;1.60;;
27728;SDS011;15126;42.186;24.340;2022-07-12T11:08:50;2.35;;;1.60;;
27728;SDS011;15126;42.186;24.340;2022-07-12T11:11:19;6.80;;;1.83;;
27728;SDS011;15126;42.186;24.340;2022-07-12T11:13:47;3.97;;;1.38;;
27728;SDS011;15126;42.186;24.340;2022-07-12T11:16:14;5.30;;;1.50;;
27728;SDS011;15126;42.186;24.340;2022-07-12T11:18:41;5.37;;;1.77;;
27728;SDS011;15126;42.186;24.340;2022-07-12T11:21:09;3.28;;;1.85;;
27728;SDS011;15126;42.186;24.340;2022-07-12T11:23:38;2.38;;;1.40;;
27728;SDS011;15126;42.186;24.340;2022-07-12T11:26:07;2.90;;;1.40;;
27728;SDS011;15126;42.186;24.340;2022-07-12T11:28:36;4.60;;;2.15;;
27728;SDS011;15126;42.186;24.340;2022-07-12T11:31:04;5.80;;;1.47;;
27728;SDS011;15126;42.186;24.340;2022-07-12T11:33:33;4.57;;;1.67;;
27728;SDS011;15126;42.186;24.340;2022-07-12T11:36:03;3.77;;;1.60;;
27728;SDS011;15126;42.186;24.340;2022-07-12T11:38:32;3.80;;;1.60;;
27728;SDS011;15126;42.186;24.340;2022-07-12T11:41:01;3.97;;;1.70;;
27728;SDS011;15126;42.186;24.340;2022-07-12T11:43:29;3.83;;;2.17;;
27728;SDS011;15126;42.186;24.340;2022-07-12T11:45:58;4.97;;;1.40;;
27728;SDS011;15126;42.186;24.340;2022-07-12T11:48:26;5.20;;;2.00;;
27728;SDS011;15126;42.186;24.340;2022-07-12T11:50:54;4.20;;;1.60;;
27728;SDS011;15126;42.186;24.340;2022-07-12T11:53:22;5.23;;;1.97;;
27728;SDS011;15126;42.186;24.340;2022-07-12T11:55:50;2.97;;;1.63;;
27728;SDS011;15126;42.186;24.340;2022-07-12T11:58:20;9.38;;;1.92;;
27728;SDS011;15126;42.186;24.340;2022-07-12T12:00:48;3.73;;;1.73;;
27728;SDS011;15126;42.186;24.340;2022-07-12T12:03:16;4.07;;;1.60;;
27728;SDS011;15126;42.186;24.340;2022-07-12T12:05:45;3.17;;;1.40;;
27728;SDS011;15126;42.186;24.340;2022-07-12T12:08:13;3.85;;;1.52;;
27728;SDS011;15126;42.186;24.340;2022-07-12T12:10:41;3.27;;;1.83;;
27728;SDS011;15126;42.186;24.340;2022-07-12T12:13:13;3.67;;;1.30;;
27728;SDS011;15126;42.186;24.340;2022-07-12T12:15:48;3.13;;;2.33;;
27728;SDS011;15126;42.186;24.340;2022-07-12T12:18:16;5.78;;;1.77;;
27728;SDS011;15126;42.186;24.340;2022-07-12T12:20:56;2.70;;;1.40;;
27728;SDS011;15126;42.186;24.340;2022-07-12T12:23:24;3.13;;;1.25;;
27728;SDS011;15126;42.186;24.340;2022-07-12T12:25:51;2.13;;;1.67;;
27728;SDS011;15126;42.186;24.340;2022-07-12T12:28:18;3.92;;;1.70;;
27728;SDS011;15126;42.186;24.340;2022-07-12T12:30:50;4.63;;;1.15;;
27728;SDS011;15126;42.186;24.340;2022-07-12T12:33:33;3.20;;;1.40;;
27728;SDS011;15126;42.186;24.340;2022-07-12T12:36:11;5.22;;;2.22;;
27728;SDS011;15126;42.186;24.340;2022-07-12T12:38:39;4.63;;;1.60;;
27728;SDS011;15126;42.186;24.340;2022-07-12T12:41:07;4.97;;;2.20;;
27728;SDS011;15126;42.186;24.340;2022-07-12T12:43:35;4.87;;;1.87;;
27728;SDS011;15126;42.186;24.340;2022-07-12T12:46:03;4.10;;;1.60;;
27728;SDS011;15126;42.186;24.340;2022-07-12T12:48:31;3.70;;;1.40;;
27728;SDS011;15126;42.186;24.340;2022-07-12T12:51:03;4.33;;;1.70;;
27728;SDS011;15126;42.186;24.340;2022-07-12T12:53:31;3.87;;;1.70;;
27728;SDS011;15126;42.186;24.340;2022-07-12T12:55:58;5.40;;;1.23;;
27728;SDS011;15126;42.186;24.340;2022-07-12T12:58:26;4.37;;;1.50;;
27728;SDS011;15126;42.186;24.340;2022-07-12T13:00:53;3.60;;;1.87;;
27728;SDS011;15126;42.186;24.340;2022-07-12T13:03:23;3.13;;;1.40;;
27728;SDS011;15126;42.186;24.340;2022-07-12T13:05:50;2.83;;;1.77;;
27728;SDS011;15126;42.186;24.340;2022-07-12T13:08:17;5.90;;;1.50;;
27728;SDS011;15126;42.186;24.340;2022-07-12T13:10:45;2.70;;;1.60;;
27728;SDS011;15126;42.186;24.340;2022-07-12T13:13:12;3.93;;;2.30;;
27728;SDS011;15126;42.186;24.340;2022-07-12T13:15:40;3.47;;;1.40;;
27728;SDS011;15126;42.186;24.340;2022-07-12T13:18:07;1.80;;;1.47;;
27728;SDS011;15126;42.186;24.340;2022-07-12T13:20:36;2.57;;;1.73;;
27728;SDS011;15126;42.186;24.340;2022-07-12T13:23:03;2.97;;;1.83;;
27728;SDS011;15126;42.186;24.340;2022-07-12T13:25:29;3.15;;;1.77;;
27728;SDS011;15126;42.186;24.340;2022-07-12T13:27:56;3.03;;;1.67;;
27728;SDS011;15126;42.186;24.340;2022-07-12T13:30:23;2.57;;;1.70;;
27728;SDS011;15126;42.186;24.340;2022-07-12T13:32:50;5.50;;;3.37;;
27728;SDS011;15126;42.186;24.340;2022-07-12T13:35:17;2.73;;;1.80;;
27728;SDS011;15126;42.186;24.340;2022-07-12T13:37:45;2.03;;;1.47;;
27728;SDS011;15126;42.186;24.340;2022-07-12T13:40:12;4.30;;;1.80;;
27728;SDS011;15126;42.186;24.340;2022-07-12T13:42:44;1.73;;;1.63;;
27728;SDS011;15126;42.186;24.340;2022-07-12T13:45:12;3.78;;;1.77;;
27728;SDS011;15126;42.186;24.340;2022-07-12T13:47:41;3.83;;;1.73;;
27728;SDS011;15126;42.186;24.340;2022-07-12T13:50:09;2.90;;;1.90;;
27728;SDS011;15126;42.186;24.340;2022-07-12T13:52:38;5.40;;;2.33;;
27728;SDS011;15126;42.186;24.340;2022-07-12T13:55:07;3.53;;;1.80;;
27728;SDS011;15126;42.186;24.340;2022-07-12T13:57:35;4.03;;;1.55;;
27728;SDS011;15126;42.186;24.340;2022-07-12T14:00:04;4.33;;;1.77;;
27728;SDS011;15126;42.186;24.340;2022-07-12T14:02:34;3.63;;;1.80;;
27728;SDS011;15126;42.186;24.340;2022-07-12T14:05:02;3.87;;;1.30;;
27728;SDS011;15126;42.186;24.340;2022-07-12T14:07:30;6.23;;;2.07;;
27728;SDS011;15126;42.186;24.340;2022-07-12T14:09:58;3.67;;;1.90;;
27728;SDS011;15126;42.186;24.340;2022-07-12T14:12:27;3.60;;;2.10;;
27728;SDS011;15126;42.186;24.340;2022-07-12T14:14:54;4.47;;;2.43;;
27728;SDS011;15126;42.186;24.340;2022-07-12T14:17:38;2.07;;;1.37;;
27728;SDS011;15126;42.186;24.340;2022-07-12T14:20:06;3.47;;;1.67;;
27728;SDS011;15126;42.186;24.340;2022-07-12T14:22:34;4.50;;;2.03;;
27728;SDS011;15126;42.186;24.340;2022-07-12T14:25:01;3.30;;;1.67;;
27728;SDS011;15126;42.186;24.340;2022-07-12T14:27:30;2.70;;;1.67;;
27728;SDS011;15126;42.186;24.340;2022-07-12T14:29:57;3.93;;;2.20;;
27728;SDS011;15126;42.186;24.340;2022-07-12T14:32:24;2.33;;;1.80;;
27728;SDS011;15126;42.186;24.340;2022-07-12T14:34:51;2.70;;;1.47;;
27728;SDS011;15126;42.186;24.340;2022-07-12T14:37:19;5.73;;;1.63;;
27728;SDS011;15126;42.186;24.340;2022-07-12T14:39:46;2.07;;;1.60;;
27728;SDS011;15126;42.186;24.340;2022-07-12T14:42:13;4.37;;;1.60;;
27728;SDS011;15126;42.186;24.340;2022-07-12T14:44:42;4.30;;;1.40;;
27728;SDS011;15126;42.186;24.340;2022-07-12T14:47:09;2.90;;;1.50;;